Time;durP1;ratioP1;P1;durP2;ratioP2;P2;SDS_P1;SDS_P2;PMS_P1;PMS_P2;Temp;Humidity;BMP_temperature;BMP_pressure;BME280_temperature;BME280_humidity;BME280_pressure;Samples;Min_cycle;Max_cycle;Signal;HPM_P1;HPM_P2
2021/08/09 00:01:20;;;;;;;0.80;0.80;;;23.30;51.90;;;;;;5135307;28;20483;-54
2021/08/09 00:03:46;;;;;;;0.98;0.70;;;23.30;51.90;;;;;;5135429;28;20047;-51
2021/08/09 00:06:12;;;;;;;0.70;0.70;;;23.30;51.90;;;;;;5135312;28;20050;-55
2021/08/09 00:08:38;;;;;;;0.52;0.52;;;23.20;51.90;;;;;;5135236;28;20043;-50
2021/08/09 00:11:03;;;;;;;0.68;0.68;;;23.20;51.90;;;;;;5135314;28;20122;-53
2021/08/09 00:13:29;;;;;;;0.88;0.70;;;23.20;52.00;;;;;;5135313;28;20129;-54
2021/08/09 00:15:57;;;;;;;0.65;0.65;;;23.20;52.00;;;;;;5135168;28;20047;-53
2021/08/09 00:18:25;;;;;;;0.50;0.50;;;23.20;52.00;;;;;;5135208;28;20071;-52
2021/08/09 00:20:52;;;;;;;0.75;0.73;;;23.20;52.10;;;;;;5116858;28;20039;-50
2021/08/09 00:23:18;;;;;;;0.68;0.68;;;23.20;52.00;;;;;;5116701;28;20456;-54
2021/08/09 00:25:43;;;;;;;0.60;0.60;;;23.20;52.10;;;;;;5135100;28;20055;-54
2021/08/09 00:28:09;;;;;;;0.60;0.60;;;23.20;52.10;;;;;;5134958;28;20409;-52
2021/08/09 00:30:34;;;;;;;0.60;0.60;;;23.20;52.10;;;;;;5134945;28;20555;-56
2021/08/09 00:33:00;;;;;;;0.70;0.70;;;23.20;52.10;;;;;;5134994;28;20138;-53
2021/08/09 00:35:26;;;;;;;0.70;0.70;;;23.20;52.10;;;;;;5134926;28;20112;-52
2021/08/09 00:37:51;;;;;;;0.80;0.80;;;23.10;52.10;;;;;;5115551;28;20052;-56
2021/08/09 00:40:18;;;;;;;0.60;0.60;;;23.10;52.10;;;;;;5116335;27;20050;-51
2021/08/09 00:42:43;;;;;;;0.80;0.80;;;23.20;52.20;;;;;;5115343;28;20051;-54
2021/08/09 00:45:09;;;;;;;1.38;0.85;;;23.10;52.10;;;;;;5116170;28;20114;-54
2021/08/09 00:47:35;;;;;;;0.60;0.60;;;23.10;52.20;;;;;;5116176;28;20055;-55
2021/08/09 00:50:02;;;;;;;1.00;0.70;;;23.10;52.20;;;;;;5116174;28;20046;-54
2021/08/09 00:52:30;;;;;;;0.60;0.60;;;23.10;52.20;;;;;;5116161;28;20146;-53
2021/08/09 00:54:56;;;;;;;0.82;0.77;;;23.10;52.20;;;;;;5116111;28;20199;-55
2021/08/09 00:57:23;;;;;;;0.52;0.52;;;23.10;52.20;;;;;;5115827;28;20082;-50
2021/08/09 00:59:50;;;;;;;0.60;0.60;;;23.10;52.30;;;;;;5116113;28;20047;-56
2021/08/09 01:02:19;;;;;;;0.70;0.70;;;23.10;52.30;;;;;;5114012;28;20054;-54
2021/08/09 01:04:46;;;;;;;0.80;0.80;;;23.10;52.30;;;;;;5115990;28;20125;-47
2021/08/09 01:07:13;;;;;;;0.70;0.70;;;23.10;52.30;;;;;;5134388;28;20066;-54
2021/08/09 01:09:51;;;;;;;0.50;0.50;;;23.10;52.30;;;;;;5115821;28;20054;-51
2021/08/09 01:12:28;;;;;;;0.75;0.70;;;23.10;52.30;;;;;;5115963;28;20110;-56
2021/08/09 01:15:18;;;;;;;0.70;0.70;;;23.10;52.30;;;;;;5134570;28;20055;-51
2021/08/09 01:17:49;;;;;;;0.50;0.50;;;23.10;52.40;;;;;;5115909;28;20146;-54
2021/08/09 01:20:37;;;;;;;0.60;0.60;;;23.00;52.30;;;;;;5115805;28;20051;-48
2021/08/09 01:23:41;;;;;;;0.60;0.60;;;23.00;52.40;;;;;;5115835;28;20398;-53
2021/08/09 01:26:16;;;;;;;0.52;0.52;;;23.00;52.40;;;;;;5116246;28;20046;-52
2021/08/09 01:28:42;;;;;;;0.68;0.68;;;23.00;52.40;;;;;;5115489;28;20050;-48
2021/08/09 01:31:08;;;;;;;0.70;0.70;;;23.00;52.40;;;;;;5134267;28;20058;-53
2021/08/09 01:33:38;;;;;;;0.77;0.77;;;23.00;52.40;;;;;;5115699;28;20058;-52
2021/08/09 01:36:06;;;;;;;0.93;0.80;;;23.00;52.40;;;;;;5115772;28;20058;-55
2021/08/09 01:38:35;;;;;;;0.60;0.60;;;23.00;52.40;;;;;;5115223;28;20051;-53
2021/08/09 01:41:01;;;;;;;0.60;0.60;;;23.00;52.40;;;;;;5115327;28;20065;-50
2021/08/09 01:43:32;;;;;;;0.73;0.70;;;23.00;52.40;;;;;;5116044;28;20478;-53
2021/08/09 01:45:59;;;;;;;0.55;0.55;;;23.00;52.40;;;;;;5133806;28;20062;-58
2021/08/09 01:48:26;;;;;;;0.60;0.60;;;23.00;52.40;;;;;;5115299;28;20503;-51
2021/08/09 01:50:52;;;;;;;0.70;0.70;;;23.00;52.40;;;;;;5115295;28;20050;-52
2021/08/09 01:53:19;;;;;;;0.50;0.50;;;23.00;52.50;;;;;;5133503;27;20043;-54
2021/08/09 01:55:46;;;;;;;0.65;0.65;;;23.00;52.50;;;;;;5114372;28;20411;-53
2021/08/09 01:58:13;;;;;;;0.60;0.60;;;23.00;52.40;;;;;;5115427;28;20047;-54
2021/08/09 02:00:40;;;;;;;1.20;0.80;;;23.00;52.50;;;;;;5113594;28;20399;-51
2021/08/09 02:03:06;;;;;;;0.40;0.40;;;23.00;52.50;;;;;;5115622;28;20475;-52
2021/08/09 02:05:33;;;;;;;0.73;0.73;;;23.00;52.50;;;;;;5115657;28;20078;-53
2021/08/09 02:08:04;;;;;;;0.60;0.60;;;23.00;52.50;;;;;;5115293;28;20055;-49
2021/08/09 02:10:30;;;;;;;0.70;0.70;;;23.00;52.50;;;;;;5115389;28;20039;-52
2021/08/09 02:13:16;;;;;;;0.68;0.68;;;23.00;53.10;;;;;;5115317;28;20045;-54
2021/08/09 02:15:52;;;;;;;0.50;0.50;;;23.00;52.50;;;;;;5115309;28;20055;-50
2021/08/09 02:18:31;;;;;;;0.80;0.80;;;23.00;52.60;;;;;;5114816;28;20058;-52
2021/08/09 02:21:02;;;;;;;0.85;0.60;;;23.00;52.60;;;;;;5115461;28;20184;-53
2021/08/09 02:23:57;;;;;;;0.70;0.70;;;22.90;52.50;;;;;;5115020;28;20058;-52
2021/08/09 02:26:31;;;;;;;0.70;0.70;;;23.00;52.60;;;;;;5115120;28;20047;-54
2021/08/09 02:29:05;;;;;;;0.70;0.70;;;23.00;52.60;;;;;;5114698;28;20043;-53
2021/08/09 02:31:33;;;;;;;0.60;0.60;;;23.00;52.60;;;;;;5114639;28;20088;-52
2021/08/09 02:34:01;;;;;;;0.60;0.60;;;22.90;52.60;;;;;;5114729;28;20184;-48
2021/08/09 02:36:27;;;;;;;0.60;0.60;;;22.90;52.60;;;;;;5112961;28;20051;-50
2021/08/09 02:38:55;;;;;;;0.60;0.60;;;22.90;52.60;;;;;;5114595;28;20495;-54
2021/08/09 02:41:21;;;;;;;0.80;0.80;;;22.90;52.60;;;;;;5114215;28;21055;-51
2021/08/09 02:43:46;;;;;;;0.60;0.60;;;22.90;52.60;;;;;;5114538;28;20084;-53
2021/08/09 02:46:12;;;;;;;0.70;0.70;;;22.90;52.60;;;;;;5133301;28;20047;-47
2021/08/09 02:48:41;;;;;;;0.60;0.60;;;22.90;52.60;;;;;;5132961;28;20039;-51
2021/08/09 02:51:09;;;;;;;0.57;0.57;;;22.90;52.60;;;;;;5113772;28;20055;-52
2021/08/09 02:53:35;;;;;;;0.68;0.68;;;22.90;52.60;;;;;;5113574;28;20142;-51
2021/08/09 02:56:02;;;;;;;1.42;0.70;;;22.90;52.60;;;;;;5114949;28;20157;-54
2021/08/09 02:58:29;;;;;;;0.60;0.60;;;22.90;52.70;;;;;;5112943;28;20142;-49
2021/08/09 03:00:56;;;;;;;0.70;0.70;;;22.90;52.60;;;;;;5114125;28;20138;-53
2021/08/09 03:03:27;;;;;;;0.70;0.70;;;22.90;52.60;;;;;;5132854;28;20055;-51
2021/08/09 03:05:56;;;;;;;0.57;0.57;;;22.90;52.70;;;;;;5117752;28;20970;-49
2021/08/09 03:08:23;;;;;;;0.75;0.65;;;22.90;52.70;;;;;;5118409;28;20453;-51
2021/08/09 03:10:50;;;;;;;0.63;0.60;;;22.90;52.70;;;;;;5118287;28;20137;-49
2021/08/09 03:13:22;;;;;;;0.50;0.50;;;22.90;52.70;;;;;;5118194;28;20376;-50
2021/08/09 03:15:50;;;;;;;0.60;0.60;;;22.90;52.70;;;;;;5118062;28;20051;-48
2021/08/09 03:18:17;;;;;;;0.90;0.90;;;22.90;52.70;;;;;;5118337;28;20436;-55
2021/08/09 03:20:43;;;;;;;0.68;0.68;;;22.90;52.70;;;;;;5117559;28;20050;-51
2021/08/09 03:23:09;;;;;;;0.70;0.70;;;22.90;52.70;;;;;;5136127;28;20047;-48
2021/08/09 03:25:36;;;;;;;0.57;0.57;;;22.90;52.70;;;;;;5117694;28;20055;-51
2021/08/09 03:28:02;;;;;;;0.60;0.60;;;22.90;52.70;;;;;;5136583;28;20051;-54
2021/08/09 03:30:28;;;;;;;1.02;0.70;;;22.90;52.70;;;;;;5117475;28;20053;-51
2021/08/09 03:32:54;;;;;;;0.52;0.52;;;22.90;52.70;;;;;;5135865;28;20137;-50
2021/08/09 03:35:21;;;;;;;0.80;0.80;;;22.90;52.70;;;;;;5116017;28;20491;-49
2021/08/09 03:37:48;;;;;;;0.68;0.68;;;22.90;52.70;;;;;;5117394;28;20509;-48
2021/08/09 03:40:14;;;;;;;0.75;0.60;;;22.90;52.70;;;;;;5117486;28;20047;-51
2021/08/09 03:42:39;;;;;;;0.70;0.70;;;22.80;52.70;;;;;;5135846;28;20055;-48
2021/08/09 03:45:06;;;;;;;0.73;0.73;;;22.80;52.70;;;;;;5117255;28;20077;-51
2021/08/09 03:47:31;;;;;;;0.50;0.50;;;22.80;52.70;;;;;;5135579;28;20047;-48
2021/08/09 03:49:57;;;;;;;0.50;0.50;;;22.80;52.70;;;;;;5135652;28;20490;-52
2021/08/09 03:52:23;;;;;;;0.60;0.60;;;22.90;52.80;;;;;;5135694;28;20104;-52
2021/08/09 03:54:50;;;;;;;0.60;0.60;;;22.80;52.70;;;;;;5115729;28;20056;-54
2021/08/09 03:57:16;;;;;;;0.60;0.60;;;22.80;52.80;;;;;;5135541;28;20054;-49
2021/08/09 03:59:43;;;;;;;0.60;0.60;;;22.80;52.80;;;;;;5116400;28;20051;-50
2021/08/09 04:02:15;;;;;;;0.60;0.60;;;22.80;52.80;;;;;;5116986;28;20039;-54
2021/08/09 04:04:42;;;;;;;0.50;0.50;;;22.80;52.80;;;;;;5116278;28;20043;-54
2021/08/09 04:07:07;;;;;;;0.60;0.60;;;22.80;52.80;;;;;;5117010;28;20398;-53
2021/08/09 04:09:33;;;;;;;0.55;0.55;;;22.80;52.80;;;;;;5116335;28;20142;-51
2021/08/09 04:11:59;;;;;;;0.50;0.50;;;22.80;52.80;;;;;;5116333;28;20078;-49
2021/08/09 04:14:25;;;;;;;0.65;0.65;;;22.80;52.80;;;;;;5115406;28;20086;-50
2021/08/09 04:16:50;;;;;;;0.60;0.60;;;22.80;52.80;;;;;;5115473;28;20055;-55
2021/08/09 04:19:16;;;;;;;0.55;0.55;;;22.80;52.80;;;;;;5134936;28;20468;-52
2021/08/09 04:21:42;;;;;;;0.65;0.60;;;22.80;52.80;;;;;;5135023;28;20387;-53
2021/08/09 04:24:08;;;;;;;0.63;0.63;;;22.80;52.80;;;;;;5116597;28;20062;-50
2021/08/09 04:26:33;;;;;;;0.60;0.60;;;22.80;52.80;;;;;;5116498;28;20051;-50
2021/08/09 04:28:59;;;;;;;0.60;0.60;;;22.80;52.80;;;;;;5114469;28;20063;-53
2021/08/09 04:31:25;;;;;;;0.60;0.60;;;22.80;52.80;;;;;;5135237;28;20035;-52
2021/08/09 04:33:51;;;;;;;0.70;0.70;;;22.80;52.70;;;;;;5116438;28;20514;-52
2021/08/09 04:36:17;;;;;;;0.50;0.50;;;22.90;52.60;;;;;;5117015;28;20120;-48
2021/08/09 04:38:42;;;;;;;1.00;0.80;;;22.90;52.60;;;;;;5116863;28;20465;-49
2021/08/09 04:41:09;;;;;;;0.65;0.65;;;23.00;52.50;;;;;;5134815;28;20492;-51
2021/08/09 04:43:40;;;;;;;0.60;0.60;;;23.00;52.40;;;;;;5116315;28;20058;-47
2021/08/09 04:46:06;;;;;;;0.70;0.70;;;23.00;52.30;;;;;;5116176;28;20051;-53
2021/08/09 04:48:34;;;;;;;0.70;0.70;;;23.10;52.20;;;;;;5115495;28;20093;-49
2021/08/09 04:51:00;;;;;;;0.60;0.60;;;23.10;52.10;;;;;;5116149;28;20055;-50
2021/08/09 04:53:26;;;;;;;0.65;0.60;;;23.20;52.10;;;;;;5116190;28;20065;-50
2021/08/09 04:55:52;;;;;;;0.70;0.70;;;23.20;52.00;;;;;;5134799;28;20046;-52
2021/08/09 04:58:17;;;;;;;0.63;0.63;;;23.20;51.90;;;;;;5114635;28;20047;-52
2021/08/09 05:00:44;;;;;;;0.70;0.70;;;23.30;51.90;;;;;;5116343;28;20047;-56
2021/08/09 05:03:10;;;;;;;0.73;0.70;;;23.30;51.80;;;;;;5116082;28;20566;-51
2021/08/09 05:05:36;;;;;;;0.70;0.70;;;23.30;51.80;;;;;;5115961;28;20541;-53
2021/08/09 05:08:03;;;;;;;0.70;0.70;;;23.40;51.80;;;;;;5115820;28;20129;-52
2021/08/09 05:10:30;;;;;;;0.60;0.60;;;23.40;51.70;;;;;;5115803;28;20058;-52
2021/08/09 05:12:56;;;;;;;0.60;0.60;;;23.40;51.80;;;;;;5115148;28;20069;-53
2021/08/09 05:15:24;;;;;;;0.93;0.90;;;23.40;51.70;;;;;;5116297;28;20051;-49
2021/08/09 05:17:50;;;;;;;0.68;0.57;;;23.40;51.60;;;;;;5114642;28;20051;-51
2021/08/09 05:20:15;;;;;;;1.98;0.57;;;23.40;51.70;;;;;;5116238;28;20414;-48
2021/08/09 05:22:41;;;;;;;0.60;0.60;;;23.50;51.60;;;;;;5115669;28;20050;-51
2021/08/09 05:25:10;;;;;;;0.70;0.70;;;23.50;51.60;;;;;;5134163;28;20455;-54
2021/08/09 05:27:36;;;;;;;0.60;0.60;;;23.60;51.50;;;;;;5133745;27;20397;-54
2021/08/09 05:30:02;;;;;;;0.77;0.77;;;23.60;51.40;;;;;;5134511;28;20054;-54
2021/08/09 05:32:29;;;;;;;0.68;0.68;;;23.60;51.30;;;;;;5134309;28;20047;-53
2021/08/09 05:34:56;;;;;;;0.63;0.63;;;23.60;51.40;;;;;;5134247;28;20050;-48
2021/08/09 05:37:23;;;;;;;0.60;0.60;;;23.60;51.20;;;;;;5098517;28;20051;-50
2021/08/09 05:39:50;;;;;;;1.75;0.88;;;23.60;51.20;;;;;;5115228;28;20055;-54
2021/08/09 05:42:17;;;;;;;0.70;0.70;;;23.60;51.30;;;;;;5115281;28;20062;-52
2021/08/09 05:44:44;;;;;;;0.77;0.77;;;23.60;51.40;;;;;;5115647;28;20397;-54
2021/08/09 05:47:10;;;;;;;0.70;0.70;;;23.60;51.40;;;;;;5115987;28;20185;-53
2021/08/09 05:49:35;;;;;;;0.63;0.63;;;23.60;51.40;;;;;;5133472;28;20106;-53
2021/08/09 05:52:01;;;;;;;0.60;0.60;;;23.60;51.50;;;;;;5133483;28;20119;-50
2021/08/09 05:54:26;;;;;;;0.88;0.80;;;23.50;51.50;;;;;;5113830;28;20051;-48
2021/08/09 05:56:52;;;;;;;0.73;0.70;;;23.60;51.50;;;;;;5114961;28;20055;-51
2021/08/09 05:59:17;;;;;;;0.70;0.70;;;23.60;51.60;;;;;;5133342;28;20104;-52
2021/08/09 06:01:44;;;;;;;0.73;0.63;;;23.70;51.40;;;;;;5115010;28;20047;-49
2021/08/09 06:04:11;;;;;;;1.05;0.90;;;23.70;51.30;;;;;;5115140;28;20059;-48
2021/08/09 06:06:44;;;;;;;0.75;0.75;;;23.80;51.10;;;;;;5134157;28;20976;-53
2021/08/09 06:09:15;;;;;;;0.60;0.60;;;23.80;51.00;;;;;;5114767;28;20375;-50
2021/08/09 06:11:42;;;;;;;0.80;0.80;;;23.90;50.90;;;;;;5115207;28;20046;-53
2021/08/09 06:14:08;;;;;;;0.60;0.60;;;24.00;50.80;;;;;;5114122;28;20050;-55
2021/08/09 06:16:34;;;;;;;1.15;0.75;;;24.00;50.60;;;;;;5115509;28;20483;-54
2021/08/09 06:19:00;;;;;;;1.30;1.00;;;24.10;50.50;;;;;;5114140;28;20131;-53
2021/08/09 06:21:30;;;;;;;0.73;0.73;;;24.10;50.40;;;;;;5115438;28;20048;-55
2021/08/09 06:23:56;;;;;;;1.00;0.77;;;24.20;50.30;;;;;;5114765;28;20051;-55
2021/08/09 06:26:22;;;;;;;0.82;0.80;;;24.20;50.20;;;;;;5114743;28;20074;-50
2021/08/09 06:28:48;;;;;;;1.40;0.90;;;24.30;50.10;;;;;;5114588;28;20125;-54
2021/08/09 06:31:14;;;;;;;0.70;0.70;;;24.40;50.00;;;;;;5114736;28;20501;-54
2021/08/09 06:33:39;;;;;;;0.93;0.80;;;24.40;49.90;;;;;;5114741;28;20407;-52
2021/08/09 06:36:05;;;;;;;0.70;0.70;;;24.40;49.80;;;;;;5114752;28;20079;-54
2021/08/09 06:38:32;;;;;;;0.70;0.70;;;24.50;49.70;;;;;;5114377;27;20515;-51
2021/08/09 06:40:58;;;;;;;1.58;0.90;;;24.50;49.60;;;;;;5117195;28;20043;-53
2021/08/09 06:43:26;;;;;;;0.88;0.88;;;24.50;49.60;;;;;;5118106;28;20051;-53
2021/08/09 06:45:53;;;;;;;0.70;0.70;;;24.50;49.50;;;;;;5136733;28;20058;-54
2021/08/09 06:48:19;;;;;;;1.73;0.70;;;24.60;49.40;;;;;;5118533;28;20468;-49
2021/08/09 06:50:46;;;;;;;0.70;0.70;;;24.60;49.40;;;;;;5100435;28;20403;-53
2021/08/09 06:53:11;;;;;;;1.52;0.80;;;24.70;49.40;;;;;;5117946;28;20046;-52
2021/08/09 06:55:41;;;;;;;0.70;0.70;;;24.70;49.30;;;;;;5118076;28;20130;-55
2021/08/09 06:58:07;;;;;;;0.70;0.70;;;24.70;49.30;;;;;;5117974;28;20138;-54
2021/08/09 07:00:32;;;;;;;0.70;0.70;;;24.70;49.20;;;;;;5118355;28;20181;-54
2021/08/09 07:03:07;;;;;;;0.82;0.75;;;24.70;49.20;;;;;;5117488;28;20055;-52
2021/08/09 07:05:41;;;;;;;0.60;0.60;;;24.70;49.20;;;;;;5117875;28;20494;-50
2021/08/09 07:08:08;;;;;;;0.80;0.80;;;24.80;49.10;;;;;;5118021;28;20054;-51
2021/08/09 07:10:34;;;;;;;0.70;0.70;;;24.80;49.10;;;;;;5117257;28;20059;-49
2021/08/09 07:12:59;;;;;;;0.60;0.60;;;24.80;49.10;;;;;;5118049;28;20051;-53
2021/08/09 07:15:25;;;;;;;0.70;0.70;;;24.70;49.00;;;;;;5136860;28;20491;-50
2021/08/09 07:17:51;;;;;;;1.67;0.70;;;24.70;49.00;;;;;;5117464;28;20134;-48
2021/08/09 07:20:17;;;;;;;1.08;0.65;;;24.70;49.00;;;;;;5135923;28;20051;-47
2021/08/09 07:22:45;;;;;;;0.57;0.57;;;24.70;49.00;;;;;;5117526;28;20055;-48
2021/08/09 07:25:14;;;;;;;0.75;0.75;;;24.70;49.00;;;;;;5117743;28;20047;-50
2021/08/09 07:27:41;;;;;;;0.98;0.80;;;24.70;49.00;;;;;;5117784;28;20043;-48
2021/08/09 07:30:09;;;;;;;0.73;0.73;;;24.70;49.10;;;;;;5117182;28;20051;-50
2021/08/09 07:32:35;;;;;;;0.77;0.77;;;24.70;49.00;;;;;;5099615;28;20047;-53
2021/08/09 07:35:01;;;;;;;1.17;0.80;;;24.70;49.10;;;;;;5115389;28;20142;-51
2021/08/09 07:37:27;;;;;;;0.93;0.82;;;24.70;49.10;;;;;;5115634;28;20133;-51
2021/08/09 07:39:52;;;;;;;0.85;0.80;;;24.70;49.10;;;;;;5134301;28;20563;-53
2021/08/09 07:42:18;;;;;;;0.70;0.70;;;24.70;49.00;;;;;;5116415;28;20497;-54
2021/08/09 07:44:45;;;;;;;1.02;0.80;;;24.70;49.00;;;;;;5117202;28;20050;-52
2021/08/09 07:47:10;;;;;;;0.90;0.90;;;24.70;49.00;;;;;;5135565;28;20100;-50
2021/08/09 07:49:36;;;;;;;0.75;0.75;;;24.70;49.00;;;;;;5116552;28;20578;-51
2021/08/09 07:52:02;;;;;;;0.80;0.80;;;24.80;49.00;;;;;;5135131;27;20130;-52
2021/08/09 07:54:28;;;;;;;0.65;0.65;;;24.90;48.90;;;;;;5117050;28;20047;-53
2021/08/09 07:56:54;;;;;;;0.73;0.70;;;24.80;48.80;;;;;;5116094;28;20051;-51
2021/08/09 07:59:21;;;;;;;0.70;0.70;;;24.90;48.80;;;;;;5115325;28;20448;-51
2021/08/09 08:01:50;;;;;;;1.00;0.90;;;24.90;48.70;;;;;;5116756;28;20133;-49
2021/08/09 08:04:16;;;;;;;0.65;0.65;;;25.00;48.60;;;;;;5117050;28;20094;-52
2021/08/09 08:06:41;;;;;;;0.70;0.70;;;25.00;48.50;;;;;;5116733;28;20519;-51
2021/08/09 08:09:08;;;;;;;1.05;0.80;;;25.00;48.50;;;;;;5116798;28;20051;-52
2021/08/09 08:11:35;;;;;;;0.80;0.80;;;25.00;48.40;;;;;;5116784;28;20074;-49
2021/08/09 08:14:01;;;;;;;1.02;0.90;;;25.00;48.40;;;;;;5116710;28;20081;-51
2021/08/09 08:16:27;;;;;;;0.70;0.70;;;25.00;48.40;;;;;;5117045;28;20054;-54
2021/08/09 08:18:53;;;;;;;0.70;0.70;;;25.10;48.30;;;;;;5114632;28;20407;-49
2021/08/09 08:21:20;;;;;;;0.80;0.80;;;25.10;48.20;;;;;;5134982;28;20047;-50
2021/08/09 08:23:46;;;;;;;0.80;0.80;;;25.20;48.20;;;;;;5135019;28;20493;-52
2021/08/09 08:26:11;;;;;;;0.82;0.82;;;25.20;48.10;;;;;;5117081;28;20066;-49
2021/08/09 08:28:37;;;;;;;0.70;0.70;;;25.20;48.10;;;;;;5134935;28;20050;-52
2021/08/09 08:31:05;;;;;;;0.60;0.60;;;25.20;48.00;;;;;;5116952;28;20043;-50
2021/08/09 08:33:31;;;;;;;0.60;0.60;;;25.20;48.00;;;;;;5115735;28;20058;-52
2021/08/09 08:35:57;;;;;;;0.73;0.73;;;25.20;48.00;;;;;;5114510;28;20056;-53
2021/08/09 08:38:23;;;;;;;0.70;0.70;;;25.20;47.90;;;;;;5116301;28;20081;-53
2021/08/09 08:40:51;;;;;;;0.63;0.63;;;25.30;48.00;;;;;;5134583;28;20086;-54
2021/08/09 08:43:24;;;;;;;0.65;0.60;;;25.30;47.90;;;;;;5117016;28;20055;-51
2021/08/09 08:45:56;;;;;;;0.80;0.60;;;25.40;47.80;;;;;;5116429;28;20054;-50
2021/08/09 08:48:24;;;;;;;0.70;0.70;;;25.40;47.70;;;;;;5116788;28;20578;-53
2021/08/09 08:50:51;;;;;;;0.77;0.73;;;25.50;47.70;;;;;;5134557;28;20538;-53
2021/08/09 08:53:17;;;;;;;0.77;0.70;;;25.40;47.50;;;;;;5116176;28;20095;-50
2021/08/09 08:55:43;;;;;;;0.73;0.73;;;25.50;47.50;;;;;;5116194;28;20051;-53
2021/08/09 08:58:09;;;;;;;2.05;0.80;;;25.50;47.60;;;;;;5135009;28;20058;-48
2021/08/09 09:00:39;;;;;;;1.00;0.90;;;25.40;47.50;;;;;;5134507;28;20050;-51
2021/08/09 09:03:18;;;;;;;1.10;0.77;;;25.40;47.50;;;;;;5115420;28;20583;-53
2021/08/09 09:06:04;;;;;;;0.70;0.60;;;25.40;47.50;;;;;;5134655;28;20046;-49
2021/08/09 09:08:43;;;;;;;0.70;0.70;;;25.40;47.50;;;;;;5134725;28;20046;-54
2021/08/09 09:11:34;;;;;;;0.90;0.80;;;25.40;47.50;;;;;;5134717;28;20460;-47
2021/08/09 09:14:05;;;;;;;1.40;0.70;;;25.40;47.50;;;;;;5115865;28;20146;-48
2021/08/09 09:16:48;;;;;;;0.70;0.70;;;25.40;47.50;;;;;;5134644;28;20075;-50
2021/08/09 09:19:41;;;;;;;0.80;0.80;;;25.40;47.50;;;;;;5115571;28;20051;-49
2021/08/09 09:22:21;;;;;;;0.63;0.60;;;25.40;47.50;;;;;;5133327;28;20138;-52
2021/08/09 09:24:51;;;;;;;0.70;0.70;;;25.50;47.50;;;;;;5134305;28;20051;-52
2021/08/09 09:27:35;;;;;;;0.70;0.70;;;25.50;47.50;;;;;;5134244;28;20058;-54
2021/08/09 09:30:26;;;;;;;0.60;0.60;;;25.50;47.40;;;;;;5133991;28;20057;-48
2021/08/09 09:32:59;;;;;;;;;;;25.50;47.40;;;;;;5134716;28;20082;-52
2021/08/09 09:35:24;;;;;;;0.82;0.70;;;25.50;47.30;;;;;;5134281;28;19919;-53
2021/08/09 09:37:51;;;;;;;0.60;0.60;;;25.60;47.30;;;;;;5134292;28;20110;-51
2021/08/09 09:40:19;;;;;;;1.05;0.80;;;25.60;47.20;;;;;;5133831;28;20145;-51
2021/08/09 09:42:46;;;;;;;0.70;0.70;;;25.60;47.10;;;;;;5133860;28;20051;-53
2021/08/09 09:45:27;;;;;;;0.82;0.82;;;25.60;47.10;;;;;;5133760;28;20054;-54
2021/08/09 09:48:09;;;;;;;0.65;0.65;;;25.60;47.70;;;;;;5133556;28;20051;-51
2021/08/09 09:50:39;;;;;;;0.60;0.60;;;25.60;47.10;;;;;;5133590;28;20126;-51
2021/08/09 09:53:17;;;;;;;1.10;0.82;;;25.60;47.10;;;;;;5133583;28;20051;-50
2021/08/09 09:55:44;;;;;;;0.82;0.70;;;25.70;47.10;;;;;;5133589;28;20071;-54
2021/08/09 09:58:10;;;;;;;0.73;0.73;;;25.60;47.00;;;;;;5133362;28;20078;-50
2021/08/09 10:00:37;;;;;;;0.60;0.60;;;25.60;47.10;;;;;;5133381;28;20105;-51
2021/08/09 10:03:03;;;;;;;0.70;0.70;;;25.60;47.00;;;;;;5134086;28;20046;-54
2021/08/09 10:05:30;;;;;;;0.60;0.57;;;25.70;47.10;;;;;;5134018;28;20438;-47
2021/08/09 10:08:00;;;;;;;0.75;0.75;;;25.70;47.10;;;;;;5133292;28;20051;-53
2021/08/09 10:10:26;;;;;;;0.60;0.60;;;25.70;47.00;;;;;;5133430;28;20491;-50
2021/08/09 10:12:52;;;;;;;0.75;0.75;;;25.70;47.00;;;;;;5133706;28;20058;-53
2021/08/09 10:15:20;;;;;;;0.80;0.68;;;25.70;47.00;;;;;;5136976;27;20059;-50
2021/08/09 10:17:50;;;;;;;0.70;0.70;;;25.70;46.90;;;;;;5136883;28;20039;-51
2021/08/09 10:20:18;;;;;;;0.98;0.90;;;25.70;46.90;;;;;;5136947;28;20058;-49
2021/08/09 10:23:01;;;;;;;1.77;1.10;;;25.70;46.90;;;;;;5136993;28;20051;-52
2021/08/09 10:25:46;;;;;;;0.88;0.70;;;25.70;46.90;;;;;;5137012;28;20047;-52
2021/08/09 10:28:12;;;;;;;0.70;0.70;;;25.70;46.90;;;;;;5136645;28;20471;-53
2021/08/09 10:30:38;;;;;;;1.10;0.80;;;25.80;46.90;;;;;;5136910;28;20487;-50
2021/08/09 10:33:08;;;;;;;0.80;0.80;;;25.80;46.80;;;;;;5137493;28;20129;-50
2021/08/09 10:35:40;;;;;;;0.90;0.85;;;25.80;46.70;;;;;;5137470;28;20059;-53
2021/08/09 10:38:26;;;;;;;0.63;0.63;;;25.90;46.60;;;;;;5137432;28;20952;-52
2021/08/09 10:41:08;;;;;;;1.05;0.90;;;25.90;46.60;;;;;;5118555;28;20051;-52
2021/08/09 10:43:40;;;;;;;0.68;0.68;;;26.00;46.40;;;;;;5137272;28;20138;-51
2021/08/09 10:46:38;;;;;;;0.70;0.70;;;26.00;46.30;;;;;;5136940;28;20051;-50
2021/08/09 10:49:30;;;;;;;0.90;0.85;;;26.10;46.40;;;;;;5136900;28;20047;-53
2021/08/09 10:51:56;;;;;;;0.60;0.60;;;26.10;46.10;;;;;;5136821;28;20130;-50
2021/08/09 10:54:28;;;;;;;1.33;0.90;;;26.10;46.60;;;;;;5117576;28;20184;-54
2021/08/09 10:56:55;;;;;;;0.82;0.82;;;26.20;46.10;;;;;;5136436;28;20055;-48
2021/08/09 10:59:40;;;;;;;0.60;0.60;;;26.20;46.00;;;;;;5116613;28;20134;-55
2021/08/09 11:02:13;;;;;;;0.60;0.60;;;26.20;45.90;;;;;;5136544;28;20039;-49
2021/08/09 11:04:39;;;;;;;0.95;0.80;;;26.20;45.90;;;;;;5135985;28;20073;-54
2021/08/09 11:07:17;;;;;;;1.40;0.80;;;26.30;45.90;;;;;;5115756;28;20055;-53
2021/08/09 11:09:46;;;;;;;0.70;0.70;;;26.30;46.00;;;;;;5136482;28;20074;-52
2021/08/09 11:12:24;;;;;;;0.75;0.75;;;26.30;45.80;;;;;;5136232;28;20043;-52
2021/08/09 11:15:03;;;;;;;0.80;0.80;;;26.30;45.80;;;;;;5117748;28;20051;-52
2021/08/09 11:17:49;;;;;;;0.80;0.80;;;26.30;45.80;;;;;;5136434;28;20073;-50
2021/08/09 11:20:20;;;;;;;0.60;0.60;;;26.30;45.80;;;;;;5117544;28;20105;-52
2021/08/09 11:22:55;;;;;;;0.60;0.60;;;26.30;45.80;;;;;;5136235;28;20059;-52
2021/08/09 11:25:42;;;;;;;1.17;0.80;;;26.30;45.70;;;;;;5117066;28;20058;-51
2021/08/09 11:28:23;;;;;;;0.60;0.60;;;26.30;45.70;;;;;;5117665;28;20071;-52
2021/08/09 11:30:54;;;;;;;0.75;0.75;;;26.30;45.70;;;;;;5135932;28;20095;-53
2021/08/09 11:33:21;;;;;;;0.70;0.70;;;26.30;46.10;;;;;;5117306;28;20062;-53
2021/08/09 11:35:48;;;;;;;1.02;0.93;;;26.40;45.60;;;;;;5135741;28;20055;-50
2021/08/09 11:38:14;;;;;;;0.65;0.65;;;26.40;45.60;;;;;;5135645;28;20071;-51
2021/08/09 11:40:41;;;;;;;0.70;0.70;;;26.40;45.50;;;;;;5135695;28;20083;-53
2021/08/09 11:43:08;;;;;;;0.75;0.60;;;26.40;45.50;;;;;;5135719;28;20058;-51
2021/08/09 11:45:34;;;;;;;0.90;0.77;;;26.40;45.50;;;;;;5136220;28;20047;-51
2021/08/09 11:48:00;;;;;;;0.63;0.63;;;26.40;45.40;;;;;;5135543;28;20062;-50
2021/08/09 11:50:26;;;;;;;0.63;0.60;;;26.40;45.40;;;;;;5135709;28;20516;-53
2021/08/09 11:52:52;;;;;;;0.82;0.80;;;26.40;45.40;;;;;;5136073;28;20055;-51
2021/08/09 11:55:24;;;;;;;0.98;0.70;;;26.40;45.30;;;;;;5135607;28;20051;-49
2021/08/09 11:57:49;;;;;;;0.70;0.70;;;26.50;45.40;;;;;;5117322;28;20066;-50
2021/08/09 12:00:16;;;;;;;0.70;0.70;;;26.50;45.40;;;;;;5135448;28;20047;-52
2021/08/09 12:03:16;;;;;;;0.80;0.80;;;26.50;45.30;;;;;;5135340;28;20067;-53
2021/08/09 12:05:42;;;;;;;0.60;0.60;;;26.50;45.30;;;;;;5135218;28;20490;-47
2021/08/09 12:08:08;;;;;;;0.52;0.52;;;26.50;45.30;;;;;;5135565;28;20085;-49
2021/08/09 12:10:36;;;;;;;0.70;0.70;;;26.60;45.30;;;;;;5117071;28;20047;-54
2021/08/09 12:13:22;;;;;;;0.68;0.68;;;26.50;45.20;;;;;;5116804;28;20425;-49
2021/08/09 12:16:07;;;;;;;1.15;0.77;;;26.60;45.30;;;;;;5116874;28;20482;-52
2021/08/09 12:18:33;;;;;;;0.52;0.52;;;26.50;45.20;;;;;;5135434;28;20059;-47
2021/08/09 12:21:13;;;;;;;0.95;0.90;;;26.60;45.20;;;;;;5135623;28;20396;-48
2021/08/09 12:23:50;;;;;;;0.80;0.80;;;26.60;45.30;;;;;;5116818;28;20053;-46
2021/08/09 12:26:36;;;;;;;0.70;0.70;;;26.60;45.20;;;;;;5135439;28;20055;-48
2021/08/09 12:29:05;;;;;;;0.60;0.60;;;26.60;45.20;;;;;;5116125;28;20095;-51
2021/08/09 12:31:39;;;;;;;0.80;0.68;;;26.60;45.20;;;;;;5135029;28;20069;-50
2021/08/09 12:34:09;;;;;;;0.60;0.60;;;26.60;45.20;;;;;;5135165;28;20047;-51
2021/08/09 12:36:36;;;;;;;0.60;0.60;;;26.60;45.20;;;;;;5134332;27;20054;-52
2021/08/09 12:39:03;;;;;;;0.73;0.65;;;26.60;45.10;;;;;;5134271;28;20054;-52
2021/08/09 12:41:31;;;;;;;1.00;0.70;;;26.60;45.10;;;;;;5134929;28;20100;-52
2021/08/09 12:44:02;;;;;;;0.75;0.70;;;26.60;45.10;;;;;;5135070;28;20053;-52
2021/08/09 12:46:28;;;;;;;0.70;0.70;;;26.60;45.10;;;;;;5134827;28;20092;-49
2021/08/09 12:48:55;;;;;;;0.80;0.70;;;26.60;45.00;;;;;;5099404;28;20058;-53
2021/08/09 12:51:20;;;;;;;0.77;0.75;;;26.60;45.00;;;;;;5134486;28;20043;-50
2021/08/09 12:53:46;;;;;;;1.23;1.00;;;26.60;45.00;;;;;;5134823;28;20494;-54
2021/08/09 12:56:13;;;;;;;0.70;0.70;;;26.60;45.00;;;;;;5134315;28;20047;-53
2021/08/09 12:58:40;;;;;;;0.68;0.68;;;26.60;45.00;;;;;;5134305;28;20046;-53